Time;durP1;ratioP1;P1;durP2;ratioP2;P2;SDS_P1;SDS_P2;PMS_P1;PMS_P2;Temp;Humidity;BMP_temperature;BMP_pressure;BME280_temperature;BME280_humidity;BME280_pressure;Samples;Min_cycle;Max_cycle;Signal;HPM_P1;HPM_P2
2022/01/08 00:00:08;;;;;;;4.82;2.20;;;;;;;3.10;84.62;94671.16;5110818;28;20278;-76
2022/01/08 00:02:36;;;;;;;4.97;3.20;;;;;;;3.10;84.75;94687.22;5111352;28;20229;-76
2022/01/08 00:05:03;;;;;;;4.15;2.55;;;;;;;3.07;84.76;94674.41;5111023;28;20205;-75
2022/01/08 00:07:30;;;;;;;5.05;2.60;;;;;;;3.10;84.60;94675.72;5111157;28;20577;-75
2022/01/08 00:09:59;;;;;;;5.10;3.17;;;;;;;3.13;84.48;94675.16;5110725;28;20206;-75
2022/01/08 00:12:26;;;;;;;2.25;1.73;;;;;;;3.15;84.40;94673.00;5110829;28;20201;-74
2022/01/08 00:14:54;;;;;;;2.25;1.83;;;;;;;3.15;84.48;94678.34;5111158;28;20621;-77
2022/01/08 00:17:22;;;;;;;3.35;2.38;;;;;;;3.16;84.25;94679.94;5110936;28;20198;-73
2022/01/08 00:19:49;;;;;;;2.35;2.15;;;;;;;3.19;84.37;94684.75;5097646;28;20202;-72
2022/01/08 00:22:17;;;;;;;2.85;2.25;;;;;;;3.17;84.34;94686.91;5110221;28;20225;-73
2022/01/08 00:24:44;;;;;;;4.90;2.97;;;;;;;3.12;84.71;94678.91;5110242;28;20684;-74
2022/01/08 00:27:13;;;;;;;4.40;2.45;;;;;;;3.07;84.59;94678.94;5110886;28;20213;-73
2022/01/08 00:29:40;;;;;;;7.20;2.42;;;;;;;3.11;84.51;94672.78;5110896;28;20206;-74
2022/01/08 00:32:08;;;;;;;2.92;1.65;;;;;;;3.06;84.72;94669.31;5110589;28;20668;-74
2022/01/08 00:34:36;;;;;;;2.53;1.73;;;;;;;3.05;84.99;94667.72;5110244;28;20266;-75
2022/01/08 00:37:03;;;;;;;3.08;1.92;;;;;;;3.01;85.04;94662.13;5109866;28;20205;-73
2022/01/08 00:39:30;;;;;;;4.22;2.55;;;;;;;2.98;85.00;94657.34;5110958;28;20198;-74
2022/01/08 00:41:57;;;;;;;2.83;1.88;;;;;;;2.96;84.98;94653.34;5110286;28;20234;-73
2022/01/08 00:44:26;;;;;;;4.00;2.53;;;;;;;3.00;85.06;94657.88;5111773;28;20209;-73
2022/01/08 00:46:53;;;;;;;3.50;2.17;;;;;;;3.00;84.91;94649.06;5114462;28;20205;-77
2022/01/08 00:49:24;;;;;;;3.00;2.30;;;;;;;3.02;85.08;94657.56;5114376;28;20198;-74
2022/01/08 00:51:51;;;;;;;4.55;1.90;;;;;;;3.04;84.72;94655.41;5114107;28;20200;-74
2022/01/08 00:54:18;;;;;;;3.08;1.65;;;;;;;3.06;84.68;94662.09;5114889;28;20694;-74
2022/01/08 00:56:46;;;;;;;1.92;1.60;;;;;;;3.06;84.77;94663.97;5114443;28;20193;-75
2022/01/08 00:59:14;;;;;;;3.75;1.95;;;;;;;3.03;84.74;94659.97;5102830;28;20221;-74
2022/01/08 01:01:42;;;;;;;3.38;2.00;;;;;;;3.03;84.87;94662.66;5111779;28;20239;-73
2022/01/08 01:04:10;;;;;;;3.33;1.95;;;;;;;3.00;84.85;94659.75;5113347;28;20232;-73
2022/01/08 01:06:37;;;;;;;1.48;1.15;;;;;;;3.05;84.83;94651.66;5110148;28;20568;-74
2022/01/08 01:09:04;;;;;;;2.88;1.58;;;;;;;3.05;84.92;94651.66;5110175;28;20205;-73
2022/01/08 01:11:31;;;;;;;4.07;1.88;;;;;;;3.05;84.57;94652.47;5113044;28;20625;-76
2022/01/08 01:13:59;;;;;;;3.35;2.17;;;;;;;3.06;84.71;94642.56;5112783;28;20202;-73
2022/01/08 01:16:26;;;;;;;3.28;2.08;;;;;;;3.06;84.65;94642.56;5112725;28;20198;-73
2022/01/08 01:18:56;;;;;;;3.13;2.15;;;;;;;3.03;84.70;94640.44;5113008;28;20219;-74
2022/01/08 01:21:23;;;;;;;1.63;1.38;;;;;;;3.04;84.78;94640.16;5099300;28;20190;-74
2022/01/08 01:23:51;;;;;;;4.43;2.15;;;;;;;2.98;85.00;94637.81;5112259;28;20230;-73
2022/01/08 01:26:23;;;;;;;3.30;1.63;;;;;;;3.00;84.87;94627.66;5112991;28;20232;-77
2022/01/08 01:28:56;;;;;;;2.80;1.98;;;;;;;2.97;85.08;94626.31;5112460;28;20201;-73
2022/01/08 01:47:55;;;;;;;6.75;2.17;;;;;;;2.88;85.52;94614.59;5105102;28;20228;-75
2022/01/08 01:50:24;;;;;;;1.98;1.38;;;;;;;2.88;85.68;94611.13;5113367;28;20202;-74
2022/01/08 01:52:52;;;;;;;3.00;1.88;;;;;;;2.87;85.73;94612.22;5113391;28;20202;-74
2022/01/08 01:55:19;;;;;;;3.00;1.73;;;;;;;2.87;85.70;94606.88;5112058;28;20198;-74
2022/01/08 01:57:48;;;;;;;3.75;2.15;;;;;;;2.85;85.94;94607.97;5113097;28;20226;-76
2022/01/08 02:00:16;;;;;;;2.13;1.17;;;;;;;2.85;85.87;94602.63;5099948;28;20237;-74
2022/01/08 02:02:43;;;;;;;1.88;1.15;;;;;;;2.81;86.21;94598.88;5112644;28;20225;-75
2022/01/08 02:05:10;;;;;;;3.33;1.75;;;;;;;2.80;86.09;94599.16;5113014;28;20205;-74
2022/01/08 02:07:39;;;;;;;2.58;1.73;;;;;;;2.81;85.86;94592.75;5112826;28;20610;-74
2022/01/08 02:10:08;;;;;;;2.83;1.75;;;;;;;2.80;85.96;94602.63;5113031;28;20209;-73
2022/01/08 02:12:36;;;;;;;3.35;2.42;;;;;;;2.78;85.94;94599.44;5112769;28;20206;-74
2022/01/08 02:15:04;;;;;;;5.55;2.03;;;;;;;2.79;85.70;94598.38;5104583;28;20221;-73
2022/01/08 02:17:31;;;;;;;2.20;1.60;;;;;;;2.78;85.84;94596.78;5107985;28;20201;-74
2022/01/08 02:20:00;;;;;;;2.22;1.55;;;;;;;2.85;85.23;94583.88;5113276;28;20227;-74
2022/01/08 02:22:28;;;;;;;4.35;1.75;;;;;;;2.83;85.28;94574.53;5117121;28;20198;-75
2022/01/08 02:24:55;;;;;;;2.45;1.70;;;;;;;2.90;84.86;94576.88;5107681;28;20727;-76
2022/01/08 02:27:22;;;;;;;3.28;1.92;;;;;;;2.91;84.68;94565.09;5109879;28;20218;-74
2022/01/08 02:29:50;;;;;;;3.17;1.70;;;;;;;2.91;84.42;94560.56;5113059;28;20630;-74
2022/01/08 02:32:19;;;;;;;2.30;1.35;;;;;;;2.93;84.28;94558.41;5112018;28;20206;-73
2022/01/08 02:34:49;;;;;;;1.50;1.40;;;;;;;2.91;84.23;94560.56;5112346;28;20202;-74
2022/01/08 02:37:19;;;;;;;2.00;1.17;;;;;;;2.98;84.07;94549.53;5107814;28;20209;-73
2022/01/08 02:39:49;;;;;;;2.42;1.45;;;;;;;2.98;83.96;94549.53;5103681;28;20205;-74
2022/01/08 02:42:19;;;;;;;1.35;1.25;;;;;;;2.99;84.07;94543.13;5111406;28;20255;-74
2022/01/08 02:44:48;;;;;;;1.92;1.73;;;;;;;3.06;83.52;94530.97;5111535;28;20316;-74
2022/01/08 02:47:16;;;;;;;2.47;1.58;;;;;;;3.07;83.34;94537.13;5105597;28;20202;-74
2022/01/08 02:49:44;;;;;;;3.25;1.70;;;;;;;3.08;83.14;94533.38;5105186;28;20201;-74
2022/01/08 02:52:12;;;;;;;1.77;1.45;;;;;;;3.09;83.01;94529.63;5098254;28;20557;-74
2022/01/08 02:54:41;;;;;;;1.77;1.23;;;;;;;3.12;83.27;94529.06;5111405;28;20656;-75
2022/01/08 02:57:08;;;;;;;1.65;1.33;;;;;;;3.12;83.29;94523.72;5111501;28;20582;-74
2022/01/08 02:59:36;;;;;;;2.03;1.30;;;;;;;3.11;83.01;94520.25;5111664;28;20198;-75
2022/01/08 03:02:04;;;;;;;6.45;1.52;;;;;;;3.12;83.39;94518.38;5103923;28;20215;-74
2022/01/08 03:04:31;;;;;;;1.70;1.38;;;;;;;3.09;83.35;94519.72;5106378;28;20221;-74
2022/01/08 03:06:58;;;;;;;2.67;1.60;;;;;;;3.12;83.47;94521.03;5111599;28;20205;-73
2022/01/08 03:09:27;;;;;;;3.10;1.05;;;;;;;3.12;83.19;94523.72;5111348;28;20353;-74
2022/01/08 03:11:56;;;;;;;5.15;1.83;;;;;;;3.13;83.54;94515.41;5111750;28;20197;-74
2022/01/08 03:14:23;;;;;;;1.88;1.00;;;;;;;3.15;83.71;94517.78;5111407;28;20201;-74
2022/01/08 03:16:50;;;;;;;2.20;1.20;;;;;;;3.12;83.67;94518.38;5102780;28;20198;-74
2022/01/08 03:19:18;;;;;;;1.55;0.82;;;;;;;3.11;83.67;94516.75;5107270;28;20204;-73
2022/01/08 03:21:52;;;;;;;2.72;1.50;;;;;;;3.17;83.73;94510.25;5111993;28;20201;-76
2022/01/08 03:24:26;;;;;;;6.63;2.45;;;;;;;3.12;83.43;94507.66;5111396;28;20238;-75
2022/01/08 03:26:55;;;;;;;4.15;1.83;;;;;;;3.17;83.68;94516.41;5111965;28;20711;-74
2022/01/08 03:29:23;;;;;;;1.63;1.35;;;;;;;3.11;84.13;94511.41;5111656;28;20197;-73
2022/01/08 03:31:51;;;;;;;1.90;1.05;;;;;;;3.14;83.99;94511.63;5111963;28;20202;-74
2022/01/08 03:34:18;;;;;;;2.10;1.33;;;;;;;3.12;83.81;94507.66;5111606;28;20617;-74
2022/01/08 03:36:45;;;;;;;2.33;1.55;;;;;;;3.17;83.76;94527.13;5111804;28;20209;-73
2022/01/08 03:39:13;;;;;;;1.58;1.48;;;;;;;3.13;84.04;94528.78;5097914;28;20213;-73
2022/01/08 03:41:42;;;;;;;2.50;1.00;;;;;;;3.13;84.03;94517.28;5110925;28;20233;-73
2022/01/08 03:44:11;;;;;;;2.83;1.45;;;;;;;3.16;84.10;94530.06;5111526;28;20229;-74
2022/01/08 03:46:39;;;;;;;3.22;2.05;;;;;;;3.17;83.96;94511.06;5111424;28;20234;-75
2022/01/08 03:51:48;;;;;;;2.60;1.60;;;;;;;3.11;84.46;94490.00;5107321;28;20213;-73
2022/01/08 03:54:15;;;;;;;1.92;1.38;;;;;;;3.11;84.69;94501.50;5101222;28;20209;-76
2022/01/08 03:56:42;;;;;;;2.88;1.40;;;;;;;3.07;84.71;94497.00;5110940;28;20696;-72
2022/01/08 03:59:11;;;;;;;2.10;1.50;;;;;;;3.07;84.98;94486.28;5111481;28;20190;-74
2022/01/08 04:01:39;;;;;;;1.38;1.00;;;;;;;3.05;84.99;94488.44;5111179;28;20198;-74
2022/01/08 04:04:06;;;;;;;2.13;1.40;;;;;;;3.07;84.99;94480.94;5111294;28;20229;-73
2022/01/08 04:06:34;;;;;;;1.33;1.08;;;;;;;3.06;84.96;94487.38;5111184;28;20198;-74
2022/01/08 04:09:01;;;;;;;1.33;1.23;;;;;;;3.01;85.40;94485.53;5110904;28;20209;-74
2022/01/08 04:11:28;;;;;;;1.40;1.23;;;;;;;3.02;85.34;94475.63;5111097;28;20259;-74
2022/01/08 04:13:56;;;;;;;3.08;2.03;;;;;;;3.03;85.61;94475.34;5098166;28;20202;-74
2022/01/08 04:16:30;;;;;;;2.72;1.60;;;;;;;3.02;85.51;94476.44;5110706;28;20721;-74
2022/01/08 04:18:57;;;;;;;2.85;1.30;;;;;;;3.03;85.63;94483.38;5111640;28;20190;-73
2022/01/08 04:24:11;;;;;;;2.38;1.58;;;;;;;3.07;85.39;94491.66;5111367;28;20349;-75
2022/01/08 04:26:38;;;;;;;1.48;1.17;;;;;;;3.12;84.99;94491.59;5113777;28;20346;-73
2022/01/08 04:29:06;;;;;;;2.75;1.50;;;;;;;3.13;85.28;94482.50;5113428;28;20198;-73
2022/01/08 04:31:35;;;;;;;1.98;1.08;;;;;;;3.15;85.12;94485.66;5113954;28;20549;-73
2022/01/08 04:34:02;;;;;;;1.33;1.23;;;;;;;3.19;85.06;94486.69;5113771;28;20259;-73
2022/01/08 04:36:30;;;;;;;3.00;1.77;;;;;;;3.14;85.20;94494.78;5113527;28;20225;-74
2022/01/08 04:38:57;;;;;;;2.13;1.15;;;;;;;3.17;85.14;94496.88;5113232;28;20194;-74
2022/01/08 04:41:24;;;;;;;2.60;1.67;;;;;;;3.18;85.16;94474.41;5113149;28;20229;-73
2022/01/08 04:43:52;;;;;;;2.08;1.38;;;;;;;3.19;85.05;94478.66;5113278;28;20217;-73
2022/01/08 04:46:19;;;;;;;1.65;1.25;;;;;;;3.20;85.04;94499.00;5113534;28;20202;-73
2022/01/08 04:48:48;;;;;;;1.95;1.55;;;;;;;3.16;85.18;94476.56;5112688;28;20198;-74
2022/01/08 04:51:15;;;;;;;5.38;1.63;;;;;;;3.18;85.32;94472.53;5113146;28;20190;-75
2022/01/08 04:53:42;;;;;;;2.28;1.52;;;;;;;3.16;85.35;94466.66;5112824;28;20201;-78
2022/01/08 04:56:09;;;;;;;3.25;1.20;;;;;;;3.20;85.12;94472.22;5107894;28;20568;-74
2022/01/08 04:58:36;;;;;;;6.93;2.60;;;;;;;3.20;85.05;94472.22;5106999;28;20205;-75
2022/01/08 05:01:03;;;;;;;5.60;3.50;;;;;;;3.24;85.30;94488.53;5107431;28;20201;-75
2022/01/08 05:03:30;;;;;;;4.28;2.10;;;;;;;3.23;85.04;94482.38;5099823;28;20225;-74
2022/01/08 05:05:58;;;;;;;4.38;2.42;;;;;;;3.25;84.91;94482.09;5113701;28;20202;-73
2022/01/08 05:08:25;;;;;;;3.10;1.63;;;;;;;3.29;84.98;94480.44;5100758;28;20198;-74
2022/01/08 05:10:52;;;;;;;2.17;1.17;;;;;;;3.34;84.40;94475.81;5114244;28;20208;-74
2022/01/08 05:13:19;;;;;;;1.92;1.27;;;;;;;3.33;84.64;94476.91;5113955;28;20198;-74
2022/01/08 05:15:46;;;;;;;1.60;1.42;;;;;;;3.37;84.62;94485.16;5113710;28;20295;-73
2022/01/08 05:18:13;;;;;;;1.35;1.25;;;;;;;3.37;84.58;94482.50;5113029;28;20229;-73
2022/01/08 05:20:43;;;;;;;1.27;0.88;;;;;;;3.36;84.58;94476.34;5113462;28;20198;-74
2022/01/08 05:23:12;;;;;;;1.95;1.10;;;;;;;3.37;84.53;94488.63;5113747;28;20193;-73
2022/01/08 05:25:39;;;;;;;1.70;1.17;;;;;;;3.39;84.67;94474.97;5113456;28;20229;-75
2022/01/08 05:28:06;;;;;;;2.58;1.40;;;;;;;3.39;84.77;94477.66;5113551;28;20229;-73
2022/01/08 05:30:33;;;;;;;1.42;1.10;;;;;;;3.37;84.70;94472.56;5113597;28;20567;-75
2022/01/08 05:33:00;;;;;;;4.68;1.60;;;;;;;3.40;84.68;94469.34;5113796;28;20202;-73
2022/01/08 05:35:28;;;;;;;1.75;1.20;;;;;;;3.43;84.53;94476.78;5113342;28;20217;-75
2022/01/08 05:37:55;;;;;;;1.92;1.10;;;;;;;3.45;84.60;94469.25;5113792;28;20221;-74
2022/01/08 05:40:24;;;;;;;1.33;0.80;;;;;;;3.49;84.45;94470.28;5113691;28;20217;-73
2022/01/08 05:42:51;;;;;;;2.08;0.98;;;;;;;3.49;84.26;94467.59;5102526;28;20234;-74
2022/01/08 05:45:18;;;;;;;1.00;0.90;;;;;;;3.49;84.04;94470.28;5110084;28;20562;-73
2022/01/08 05:47:45;;;;;;;1.13;0.70;;;;;;;3.50;84.27;94474.56;5113634;28;20202;-74
2022/01/08 05:50:12;;;;;;;1.67;1.20;;;;;;;3.51;84.38;94478.84;5113360;28;20718;-72
2022/01/08 05:52:40;;;;;;;1.92;1.20;;;;;;;3.57;84.20;94479.56;5113719;28;20205;-73
2022/01/08 05:55:07;;;;;;;1.25;1.02;;;;;;;3.52;84.43;94480.44;5113124;28;20233;-73
2022/01/08 05:57:36;;;;;;;1.05;0.98;;;;;;;3.56;84.10;94476.06;5112920;28;20707;-74
2022/01/08 06:00:07;;;;;;;2.67;1.50;;;;;;;3.53;84.47;94481.22;5099015;28;20212;-73
2022/01/08 06:02:34;;;;;;;2.75;1.38;;;;;;;3.55;84.44;94468.34;5113362;28;20190;-73
2022/01/08 06:05:01;;;;;;;1.73;1.10;;;;;;;3.57;84.23;94472.31;5113019;28;20222;-74
2022/01/08 06:07:27;;;;;;;3.53;1.52;;;;;;;3.61;84.28;94471.75;5112718;28;20204;-74
2022/01/08 06:09:54;;;;;;;1.92;0.90;;;;;;;3.57;84.10;94475.00;5099291;28;20209;-73
2022/01/08 06:12:21;;;;;;;4.50;1.67;;;;;;;3.57;84.23;94466.16;5113181;28;20224;-73
2022/01/08 06:14:49;;;;;;;2.08;1.30;;;;;;;3.58;84.33;94481.16;5112504;28;20228;-73
2022/01/08 06:17:16;;;;;;;1.10;1.00;;;;;;;3.57;84.43;94466.97;5112605;28;20243;-75
2022/01/08 06:19:43;;;;;;;1.20;0.93;;;;;;;3.57;84.38;94469.63;5112820;28;20220;-74
2022/01/08 06:22:10;;;;;;;1.50;0.98;;;;;;;3.62;84.38;94462.63;5112798;28;20202;-74
2022/01/08 06:24:37;;;;;;;3.95;2.15;;;;;;;3.60;84.34;94464.78;5098617;28;20244;-74
2022/01/08 06:27:04;;;;;;;1.63;1.30;;;;;;;3.58;84.53;94457.03;5098739;28;20564;-74
2022/01/08 06:29:31;;;;;;;1.67;1.42;;;;;;;3.62;84.43;94463.44;5097798;28;20197;-73
2022/01/08 06:32:00;;;;;;;2.10;1.33;;;;;;;3.62;84.48;94449.25;5110834;28;20209;-73
2022/01/08 06:34:26;;;;;;;0.75;0.68;;;;;;;3.66;84.38;94452.94;5103267;28;20202;-74
2022/01/08 06:36:53;;;;;;;2.13;1.48;;;;;;;3.68;84.41;94456.13;5104974;28;20209;-74
2022/01/08 06:39:20;;;;;;;1.55;1.10;;;;;;;3.69;84.33;94450.47;5097863;28;20218;-75
2022/01/08 06:41:47;;;;;;;1.55;0.82;;;;;;;3.69;84.20;94463.84;5109697;28;20241;-75
2022/01/08 06:44:14;;;;;;;1.10;1.00;;;;;;;3.72;84.40;94462.50;5112026;28;20236;-73
2022/01/08 06:46:41;;;;;;;1.73;0.90;;;;;;;3.72;84.32;94457.13;5112227;28;20609;-74
2022/01/08 06:49:10;;;;;;;1.20;0.80;;;;;;;3.73;84.31;94458.72;5112062;28;20240;-74
2022/01/08 06:51:37;;;;;;;2.78;1.23;;;;;;;3.73;84.21;94453.38;5111851;28;20201;-74
2022/01/08 06:54:04;;;;;;;2.38;1.38;;;;;;;3.77;84.21;94462.44;5112065;28;20197;-74
2022/01/08 06:56:31;;;;;;;1.45;1.35;;;;;;;3.75;84.31;94451.19;5111727;28;20210;-73
2022/01/08 06:58:58;;;;;;;2.97;1.23;;;;;;;3.74;84.36;94449.59;5111647;28;20210;-73
2022/01/08 07:01:25;;;;;;;4.05;1.23;;;;;;;3.78;84.31;94456.00;5110986;28;20209;-73
2022/01/08 07:03:52;;;;;;;2.70;1.35;;;;;;;3.79;84.47;94457.59;5112200;28;20202;-73
2022/01/08 07:06:20;;;;;;;2.20;1.17;;;;;;;3.81;84.31;94445.50;5112250;28;20202;-72
2022/01/08 07:08:47;;;;;;;1.13;0.90;;;;;;;3.82;84.15;94446.28;5111977;28;20205;-73
2022/01/08 07:11:14;;;;;;;2.83;1.70;;;;;;;3.89;84.07;94460.91;5110864;28;20252;-73
2022/01/08 07:13:41;;;;;;;2.65;1.35;;;;;;;3.86;84.06;94447.28;5100360;28;20300;-75
2022/01/08 07:16:08;;;;;;;2.15;1.63;;;;;;;3.94;84.09;94452.00;5107345;28;20208;-74
2022/01/08 07:18:35;;;;;;;2.13;1.17;;;;;;;3.92;83.80;94446.16;5111219;28;20202;-72
2022/01/08 07:21:02;;;;;;;1.50;1.35;;;;;;;3.96;83.82;94457.88;5097000;28;20198;-72
2022/01/08 07:23:30;;;;;;;1.33;1.00;;;;;;;3.97;83.84;94451.41;5110592;28;20222;-73
2022/01/08 07:25:57;;;;;;;1.17;1.08;;;;;;;4.01;83.63;94444.41;5110793;28;20763;-73
2022/01/08 07:28:24;;;;;;;1.45;1.05;;;;;;;4.04;83.48;94446.50;5110365;28;20205;-74
2022/01/08 07:30:51;;;;;;;3.42;1.67;;;;;;;4.06;83.46;94452.38;5111688;28;20224;-74
2022/01/08 07:33:18;;;;;;;9.65;2.15;;;;;;;4.06;83.28;94441.66;5111267;28;20213;-76
2022/01/08 07:35:45;;;;;;;2.13;1.13;;;;;;;4.09;83.36;94446.44;5110905;28;20660;-74
2022/01/08 07:38:12;;;;;;;1.65;1.17;;;;;;;4.07;83.29;94453.97;5110849;28;20253;-71
2022/01/08 07:40:41;;;;;;;1.85;1.45;;;;;;;4.10;83.20;94448.00;5110959;28;20217;-78
2022/01/08 07:43:08;;;;;;;0.77;0.77;;;;;;;4.18;82.98;94452.72;5111611;28;20190;-75
2022/01/08 07:45:35;;;;;;;1.23;0.70;;;;;;;4.17;82.88;94443.09;5110822;28;20254;-82
2022/01/08 07:48:03;;;;;;;2.13;0.90;;;;;;;4.21;82.96;94454.81;5111052;28;20560;-80
2022/01/08 07:50:30;;;;;;;2.10;1.20;;;;;;;4.22;82.94;94444.91;5111650;28;20194;-74
2022/01/08 07:52:57;;;;;;;1.17;0.82;;;;;;;4.23;82.23;94452.66;5110916;28;20672;-76
2022/01/08 07:55:25;;;;;;;1.40;0.98;;;;;;;4.32;82.05;94444.72;5101503;28;20628;-73
2022/01/08 07:57:53;;;;;;;2.25;1.33;;;;;;;4.38;81.89;94437.38;5115271;28;20209;-79
2022/01/08 08:00:21;;;;;;;1.42;0.82;;;;;;;4.35;81.75;94451.41;5102590;28;20209;-74
2022/01/08 08:02:48;;;;;;;1.45;0.90;;;;;;;4.40;81.54;94435.22;5114178;28;20246;-77
2022/01/08 08:05:15;;;;;;;1.10;0.90;;;;;;;4.46;81.31;94439.41;5102674;28;20623;-76
2022/01/08 08:07:43;;;;;;;3.33;1.25;;;;;;;4.50;81.34;94445.78;5115608;28;20201;-78
2022/01/08 08:10:12;;;;;;;0.95;0.85;;;;;;;4.53;81.15;94443.28;5115118;28;20203;-72
2022/01/08 08:12:40;;;;;;;2.15;1.17;;;;;;;4.55;80.91;94443.81;5115186;28;20668;-74
2022/01/08 08:15:11;;;;;;;2.40;1.20;;;;;;;4.53;80.74;94445.19;5115926;28;20224;-73
2022/01/08 08:17:39;;;;;;;1.08;0.80;;;;;;;4.60;80.69;94440.25;5115401;28;20206;-74
2022/01/08 08:20:07;;;;;;;1.75;1.13;;;;;;;4.65;80.50;94453.56;5115588;28;20660;-75
2022/01/08 08:22:34;;;;;;;3.50;1.42;;;;;;;4.66;80.18;94439.06;5115490;27;20610;-77
2022/01/08 08:25:02;;;;;;;5.00;1.20;;;;;;;4.68;80.30;94442.25;5114670;28;20255;-72
2022/01/08 08:27:30;;;;;;;2.08;0.73;;;;;;;4.77;79.89;94424.38;5114771;28;20209;-73
2022/01/08 08:29:57;;;;;;;1.65;1.15;;;;;;;4.91;79.47;94441.31;5114043;28;20284;-74
2022/01/08 08:32:26;;;;;;;3.05;1.15;;;;;;;5.00;79.07;94418.03;5114322;27;20517;-79
2022/01/08 08:34:53;;;;;;;1.92;1.20;;;;;;;4.94;79.15;94427.28;5114067;28;20198;-72
2022/01/08 08:37:21;;;;;;;2.90;1.65;;;;;;;5.06;78.85;94436.75;5114652;28;20257;-71
2022/01/08 08:39:48;;;;;;;2.08;1.00;;;;;;;5.05;78.98;94419.06;5114565;28;20216;-71
2022/01/08 08:42:15;;;;;;;2.33;1.08;;;;;;;5.08;79.00;94429.16;5114134;28;20237;-72
2022/01/08 08:44:43;;;;;;;1.42;1.05;;;;;;;5.02;79.10;94419.63;5114794;28;20278;-74
2022/01/08 08:47:10;;;;;;;1.60;1.05;;;;;;;4.99;79.07;94411.09;5114017;28;20300;-79
2022/01/08 08:49:39;;;;;;;2.30;1.30;;;;;;;5.11;78.78;94417.84;5114560;28;20296;-71
2022/01/08 08:52:07;;;;;;;2.97;1.13;;;;;;;5.18;78.46;94418.25;5114427;28;20201;-73
2022/01/08 08:54:34;;;;;;;1.05;0.88;;;;;;;5.19;78.47;94420.66;5114282;28;20221;-71
2022/01/08 08:57:01;;;;;;;2.10;1.30;;;;;;;5.20;78.36;94421.41;5114303;28;20663;-74
2022/01/08 08:59:29;;;;;;;1.27;0.98;;;;;;;5.37;77.71;94416.25;5114302;28;20206;-78
2022/01/08 09:01:56;;;;;;;1.98;1.27;;;;;;;5.29;77.54;94407.00;5114330;28;20527;-74
2022/01/08 09:04:24;;;;;;;2.22;1.50;;;;;;;5.39;77.48;94403.31;5113742;28;20205;-73
2022/01/08 09:06:53;;;;;;;3.33;1.60;;;;;;;5.49;76.95;94395.03;5113848;28;20225;-74
2022/01/08 09:09:20;;;;;;;1.33;1.02;;;;;;;5.47;76.83;94396.44;5114134;28;20197;-76
2022/01/08 09:11:47;;;;;;;1.98;0.73;;;;;;;5.43;76.99;94393.56;5114071;28;20343;-72
2022/01/08 09:14:15;;;;;;;1.50;1.15;;;;;;;5.45;77.16;94391.38;5114249;28;20658;-72
2022/01/08 09:16:47;;;;;;;1.63;1.42;;;;;;;5.29;77.57;94390.09;5114240;28;20209;-72
2022/01/08 09:19:15;;;;;;;1.83;1.38;;;;;;;5.34;77.47;94389.97;5113414;28;20193;-73
2022/01/08 09:21:42;;;;;;;3.10;1.20;;;;;;;5.42;77.12;94381.22;5113236;28;20568;-74
2022/01/08 09:24:12;;;;;;;1.83;1.42;;;;;;;5.45;77.12;94383.31;5113690;28;20263;-73
2022/01/08 09:26:39;;;;;;;1.63;1.00;;;;;;;5.47;76.84;94374.94;5113381;28;20225;-74
2022/01/08 09:29:07;;;;;;;1.05;0.77;;;;;;;5.57;76.35;94372.84;5110599;28;20639;-72
2022/01/08 09:31:34;;;;;;;3.05;1.85;;;;;;;5.41;77.24;94358.16;5102768;28;20193;-72
2022/01/08 09:34:02;;;;;;;1.23;0.90;;;;;;;5.44;77.22;94357.56;5113024;28;20263;-71
2022/01/08 09:36:29;;;;;;;1.85;1.10;;;;;;;5.56;76.87;94357.81;5112998;28;20267;-72
2022/01/08 09:38:56;;;;;;;2.05;1.58;;;;;;;5.65;76.54;94350.63;5110015;28;20234;-71
2022/01/08 09:41:25;;;;;;;2.90;1.35;;;;;;;5.60;76.31;94353.41;5103434;28;20229;-74
2022/01/08 09:43:53;;;;;;;2.50;1.48;;;;;;;5.74;75.91;94344.56;5112665;28;21046;-72
2022/01/08 09:46:21;;;;;;;1.55;1.25;;;;;;;5.72;76.14;94348.34;5112748;28;20230;-74
2022/01/08 09:48:49;;;;;;;3.03;1.40;;;;;;;5.49;76.64;94338.63;5112223;28;20254;-71
2022/01/08 09:51:16;;;;;;;2.97;1.40;;;;;;;5.50;76.49;94340.22;5113453;28;20613;-74
2022/01/08 09:53:44;;;;;;;0.93;0.90;;;;;;;5.55;76.68;94342.81;5108075;28;20583;-72
2022/01/08 09:56:11;;;;;;;3.05;1.67;;;;;;;5.47;76.85;94334.66;5092706;28;20241;-72
2022/01/08 09:58:40;;;;;;;0.80;0.75;;;;;;;5.50;76.62;94328.69;5110476;28;20205;-72
2022/01/08 10:01:25;;;;;;;2.97;1.40;;;;;;;5.44;77.38;94330.69;5113098;28;20201;-74
2022/01/08 10:03:53;;;;;;;1.77;1.38;;;;;;;5.49;76.85;94321.72;5112764;28;20606;-73
2022/01/08 10:06:24;;;;;;;3.10;1.42;;;;;;;5.56;76.50;94335.53;5113061;28;20221;-73
2022/01/08 10:08:53;;;;;;;2.85;1.55;;;;;;;5.49;77.17;94325.19;5112215;28;20212;-71
2022/01/08 10:11:21;;;;;;;2.50;1.45;;;;;;;5.70;76.59;94328.22;5112842;28;20201;-76
2022/01/08 10:13:59;;;;;;;2.83;1.85;;;;;;;5.70;76.08;94318.28;5112568;28;20221;-72
2022/01/08 10:19:19;;;;;;;3.47;1.73;;;;;;;5.69;76.75;94316.69;5112544;28;20671;-70
2022/01/08 10:21:47;;;;;;;1.63;1.08;;;;;;;5.71;76.49;94313.69;5112447;28;20224;-71
2022/01/08 10:24:20;;;;;;;4.90;2.72;;;;;;;5.78;76.73;94307.88;5112229;28;20197;-72
2022/01/08 10:26:49;;;;;;;4.03;2.15;;;;;;;5.67;77.00;94300.06;5112418;28;20213;-72
2022/01/08 10:29:20;;;;;;;2.10;1.40;;;;;;;5.66;77.00;94301.16;5112003;28;20660;-71
2022/01/08 10:31:50;;;;;;;2.30;1.83;;;;;;;5.63;77.19;94301.78;5112668;28;20201;-72
2022/01/08 10:34:19;;;;;;;2.35;1.58;;;;;;;5.55;77.19;94296.34;5098618;28;20205;-71
2022/01/08 10:36:48;;;;;;;2.75;1.98;;;;;;;5.75;77.03;94292.38;5112644;28;20236;-72
2022/01/08 10:39:21;;;;;;;3.08;1.45;;;;;;;5.70;76.46;94275.28;5112009;28;20197;-71
2022/01/08 10:41:49;;;;;;;2.58;1.70;;;;;;;5.78;76.26;94276.44;5112600;28;20230;-71
2022/01/08 10:44:19;;;;;;;3.65;2.15;;;;;;;5.95;76.16;94278.47;5103097;28;20207;-73
2022/01/08 10:46:55;;;;;;;2.97;1.55;;;;;;;5.80;76.68;94289.56;5094377;28;20238;-74
2022/01/08 10:49:31;;;;;;;1.13;1.00;;;;;;;5.68;77.31;94276.69;5112016;28;20208;-77
2022/01/08 10:51:59;;;;;;;3.45;2.08;;;;;;;5.52;77.76;94268.19;5110046;28;20181;-71
2022/01/08 10:54:27;;;;;;;1.88;1.27;;;;;;;5.77;77.34;94252.53;5111600;28;20193;-70
2022/01/08 10:56:57;;;;;;;2.45;1.25;;;;;;;5.94;76.45;94274.19;5111160;28;20201;-71
2022/01/08 10:59:26;;;;;;;7.55;2.25;;;;;;;6.04;76.32;94263.97;5109317;28;20210;-72
2022/01/08 11:01:56;;;;;;;4.00;2.05;;;;;;;6.09;76.06;94259.59;5108722;28;20209;-73
2022/01/08 11:04:40;;;;;;;3.40;2.10;;;;;;;6.12;75.17;94243.63;5110925;28;20200;-71
2022/01/08 11:07:09;;;;;;;1.85;1.40;;;;;;;6.27;74.76;94251.31;5111147;28;20213;-71
2022/01/08 11:09:38;;;;;;;2.15;1.45;;;;;;;6.42;74.34;94248.19;5111292;28;20209;-71
2022/01/08 11:12:08;;;;;;;1.52;1.15;;;;;;;6.45;74.44;94246.78;5112130;28;20209;-72
2022/01/08 11:15:00;;;;;;;3.08;1.80;;;;;;;6.43;74.15;94243.59;5111602;28;20197;-72
2022/01/08 11:17:30;;;;;;;5.35;2.25;;;;;;;6.21;74.66;94241.78;5112390;28;20281;-73
2022/01/08 11:20:00;;;;;;;2.03;1.63;;;;;;;6.70;73.71;94247.97;5111751;28;20221;-71
2022/01/08 11:22:30;;;;;;;4.55;1.10;;;;;;;6.56;73.31;94250.00;5111725;28;20266;-71
2022/01/08 11:25:00;;;;;;;2.60;1.63;;;;;;;6.50;73.39;94243.94;5112158;28;20529;-73
2022/01/08 11:27:31;;;;;;;1.85;1.50;;;;;;;6.56;72.76;94241.94;5111240;28;20214;-78
2022/01/08 11:30:09;;;;;;;2.53;1.48;;;;;;;6.35;73.45;94237.09;5111296;28;20201;-73
2022/01/08 11:32:38;;;;;;;3.97;1.77;;;;;;;6.34;73.43;94248.94;5110656;28;20200;-74
2022/01/08 11:35:08;;;;;;;5.53;2.72;;;;;;;6.22;74.42;94237.97;5110942;28;20224;-72
2022/01/08 11:37:35;;;;;;;3.20;2.20;;;;;;;6.33;74.33;94233.91;5109068;28;20292;-73
2022/01/08 11:40:07;;;;;;;2.15;1.08;;;;;;;6.04;75.04;94252.44;5097611;28;20210;-73
2022/01/08 11:42:36;;;;;;;3.40;1.48;;;;;;;6.16;74.76;94239.19;5109486;28;20320;-74
2022/01/08 11:45:07;;;;;;;2.80;1.65;;;;;;;6.21;74.77;94231.00;5110074;28;20680;-74
2022/01/08 11:47:34;;;;;;;5.68;2.25;;;;;;;6.38;74.08;94230.31;5110541;28;20213;-74
2022/01/08 11:50:04;;;;;;;2.22;1.50;;;;;;;6.04;74.67;94212.91;5110150;28;20594;-73
2022/01/08 11:52:32;;;;;;;2.15;1.40;;;;;;;6.08;75.09;94215.78;5099353;28;20241;-73
2022/01/08 11:54:59;;;;;;;2.08;1.55;;;;;;;6.12;74.79;94210.56;5105914;28;20198;-73
2022/01/08 11:57:28;;;;;;;4.35;1.70;;;;;;;6.15;74.75;94215.34;5109445;28;20205;-74
2022/01/08 11:59:59;;;;;;;5.32;1.80;;;;;;;6.21;74.58;94208.72;5109684;28;20194;-74
2022/01/08 12:02:42;;;;;;;4.95;1.83;;;;;;;6.21;74.48;94209.50;5109909;28;20196;-72
2022/01/08 12:05:11;;;;;;;2.90;1.70;;;;;;;6.02;75.18;94219.69;5096428;28;20273;-73
2022/01/08 12:07:43;;;;;;;1.65;1.15;;;;;;;5.81;75.83;94221.28;5108599;28;20324;-73
2022/01/08 12:10:20;;;;;;;2.47;1.50;;;;;;;5.83;76.21;94213.72;5097907;28;20198;-73